»·PEaware :: N333ZS KSBP-KSBA

N333ZS :: KSBP-KSBA

FLIGHT INFORMATION

Flight Status: Arrived
Operator: Privately registered:
United States
More flights under this callsign
Pilot: Judd H. (29974)
Aircraft: CESSNA 182 SKYLANE
(C182)
More flights by this aircraft type
Origin: KSBP San Luis Co Regl
United States
Destination: KSBA Santa Barbara Mun
United States
More flights between these airports :: More routes between these airports
Route:
File this flight plan on PilotEdge
Remarks:
Altitude:
(Current/Filed)
3,500ft
Speed:
(Current/Filed)
120kts
Departed: 29-Aug-20 01:19 PM
Arrived: 29-Aug-20 02:32 PM
Distance/Time
Traveled:
63nm/1:13
Distance/Time
To Go:
Arrived

Flight Plot

Page will automatically refresh every two minutes.


Map Options




Map Legend


Flown Route
Filed Route
Departure Airport
Arrival Airport
Navaid (VOR, NDB)
Fix

Horizontal Profiles

Position Reports

Time Latitude Longitude Heading Altitude Ground
Speed
29-Aug-20 13:07 35.238336 -120.639625 312 215ft 0kts
29-Aug-20 13:08 35.238336 -120.639625 312 215ft 0kts
29-Aug-20 13:09 35.238336 -120.639625 312 215ft 0kts
29-Aug-20 13:10 35.238336 -120.639625 312 215ft 0kts
29-Aug-20 13:11 35.238337 -120.639626 312 215ft 0kts
29-Aug-20 13:12 35.238337 -120.639627 312 215ft 0kts
29-Aug-20 13:13 35.238338 -120.639628 312 215ft 0kts
29-Aug-20 13:14 35.238339 -120.639629 312 215ft 0kts
29-Aug-20 13:15 35.237015 -120.638588 125 215ft 22kts
29-Aug-20 13:16 35.234017 -120.633378 124 215ft 18kts
29-Aug-20 13:17 35.233181 -120.632712 217 215ft 6kts
29-Aug-20 13:18 35.240950 -120.647523 304 461ft 107kts
29-Aug-20 13:19 35.258733 -120.682019 304 1287ft 128kts
29-Aug-20 13:20 35.278404 -120.718687 307 2058ft 130kts
29-Aug-20 13:21 35.301020 -120.753559 312 2581ft 129kts
29-Aug-20 13:22 35.315688 -120.792923 270 2641ft 138kts
29-Aug-20 13:23 35.313924 -120.840825 266 2439ft 135kts
29-Aug-20 13:24 35.311170 -120.886106 267 2471ft 130kts
29-Aug-20 13:25 35.304290 -120.928615 225 2510ft 132kts
29-Aug-20 13:26 35.289351 -120.964608 297 2591ft 128kts
29-Aug-20 13:27 35.312304 -120.959524 99 2601ft 123kts
29-Aug-20 13:28 35.284451 -120.961840 223 2572ft 131kts
29-Aug-20 13:29 35.266856 -120.950931 41 2536ft 120kts
29-Aug-20 13:30 35.278824 -120.972971 218 2421ft 135kts
29-Aug-20 13:31 35.248623 -120.981880 118 2400ft 126kts
29-Aug-20 13:32 35.267520 -120.973545 293 2421ft 127kts
29-Aug-20 13:33 35.249235 -121.008423 249 2520ft 127kts
29-Aug-20 13:34 35.252252 -121.046650 348 2476ft 126kts
29-Aug-20 13:35 35.250109 -121.026372 194 2447ft 131kts
29-Aug-20 13:36 35.233756 -121.063748 234 2564ft 132kts
29-Aug-20 13:37 35.210579 -121.052608 68 2552ft 125kts
29-Aug-20 13:38 35.227525 -121.068055 245 2624ft 127kts
29-Aug-20 13:39 35.200488 -121.064099 116 2824ft 114kts
29-Aug-20 13:40 35.188679 -121.025636 105 2776ft 130kts
29-Aug-20 13:41 35.182194 -120.982017 94 2627ft 132kts
29-Aug-20 13:42 35.173738 -120.938443 105 2497ft 132kts
29-Aug-20 13:43 35.162769 -120.896047 104 2404ft 132kts
29-Aug-20 13:44 35.148612 -120.855105 118 2374ft 129kts
29-Aug-20 13:45 35.128207 -120.819414 127 2416ft 129kts
29-Aug-20 13:46 35.103724 -120.787288 135 2464ft 129kts
29-Aug-20 13:47 35.071429 -120.767488 159 2480ft 131kts
29-Aug-20 13:48 35.036358 -120.753823 157 2503ft 131kts
29-Aug-20 13:50 35.000858 -120.744406 171 2553ft 128kts
29-Aug-20 13:51 34.965419 -120.743644 179 2580ft 126kts
29-Aug-20 13:52 34.929892 -120.743230 175 2556ft 127kts
29-Aug-20 13:53 34.894971 -120.741087 175 2559ft 124kts
29-Aug-20 13:54 34.860596 -120.739058 177 2555ft 122kts
29-Aug-20 13:55 34.826489 -120.737659 177 2554ft 122kts
29-Aug-20 13:56 34.792535 -120.736006 176 2554ft 121kts
29-Aug-20 13:57 34.758705 -120.734433 177 2553ft 121kts
29-Aug-20 13:58 34.724858 -120.732774 177 2553ft 121kts
29-Aug-20 13:59 34.691106 -120.731083 177 2552ft 121kts
29-Aug-20 14:00 34.657295 -120.729497 176 2552ft 121kts
29-Aug-20 14:01 34.623477 -120.727870 177 2552ft 121kts
29-Aug-20 14:02 34.589672 -120.726331 177 2551ft 121kts
29-Aug-20 14:03 34.557287 -120.716416 156 2549ft 121kts
29-Aug-20 14:04 34.526383 -120.699264 156 2551ft 122kts
29-Aug-20 14:05 34.498099 -120.676364 145 2551ft 122kts
29-Aug-20 14:05 34.478981 -120.650500 133 2551ft 123kts
29-Aug-20 14:07 34.454052 -120.612263 129 2552ft 124kts
29-Aug-20 14:08 34.433592 -120.578486 129 2552ft 124kts
29-Aug-20 14:08 34.416526 -120.550291 129 2553ft 124kts
29-Aug-20 14:09 34.398346 -120.514923 101 2547ft 128kts
29-Aug-20 14:11 34.397834 -120.464462 92 2575ft 129kts
29-Aug-20 14:11 34.398842 -120.427953 92 2579ft 129kts
29-Aug-20 14:12 34.400055 -120.384365 92 2581ft 130kts
29-Aug-20 14:13 34.401283 -120.340666 92 2582ft 129kts
29-Aug-20 14:14 34.402349 -120.297041 92 2575ft 130kts
29-Aug-20 14:15 34.403527 -120.253259 92 2574ft 130kts
29-Aug-20 14:16 34.404658 -120.209584 92 2575ft 129kts
29-Aug-20 14:17 34.431863 -120.182529 23 2194ft 135kts
29-Aug-20 14:18 34.463204 -120.168788 35 2406ft 113kts
29-Aug-20 14:19 34.472171 -120.135073 89 2461ft 108kts
29-Aug-20 14:20 34.474275 -120.098168 109 2456ft 108kts
29-Aug-20 14:21 34.455049 -120.072038 137 2466ft 104kts
29-Aug-20 14:22 34.436933 -120.044198 127 2464ft 105kts
29-Aug-20 14:23 34.420596 -120.014566 127 2463ft 106kts
29-Aug-20 14:24 34.414407 -119.976806 95 2178ft 122kts
29-Aug-20 14:25 34.413333 -119.934700 95 1810ft 128kts
29-Aug-20 14:26 34.412097 -119.891086 95 1471ft 126kts
29-Aug-20 14:27 34.411374 -119.854563 94 1042ft 102kts
29-Aug-20 14:28 34.410387 -119.820304 96 896ft 98kts
29-Aug-20 14:29 34.426095 -119.804257 321 874ft 96kts
29-Aug-20 14:30 34.427964 -119.831593 265 81ft 72kts
29-Aug-20 14:31 34.428840 -119.842033 345 13ft 6kts
29-Aug-20 14:32 34.430638 -119.840002 68 13ft 14kts
29-Aug-20 14:33 34.432198 -119.835712 18 13ft 0kts
29-Aug-20 14:34 34.432249 -119.835614 65 13ft 0kts

Navigation Log

Ident Type
Flight plan parsing failed, navigation log unavailable